Time;durP1;ratioP1;P1;durP2;ratioP2;P2;SDS_P1;SDS_P2;PMS_P1;PMS_P2;Temp;Humidity;BMP_temperature;BMP_pressure;BME280_temperature;BME280_humidity;BME280_pressure;Samples;Min_cycle;Max_cycle;Signal;HPM_P1;HPM_P2
2023/06/09 00:01:13;;;;;;;17.85;12.38;;;;;;;;;;4978230;28;20038;-78
2023/06/09 00:03:39;;;;;;;15.05;10.77;;;;;;;;;;4988115;28;20090;-78
2023/06/09 00:06:05;;;;;;;22.23;13.48;;;;;;;;;;4958405;28;20037;-78
2023/06/09 00:08:32;;;;;;;14.85;11.32;;;;;;;;;;4989476;28;20468;-78
2023/06/09 00:10:57;;;;;;;18.00;11.52;;;;;;;;;;4945491;28;20056;-77
2023/06/09 00:13:23;;;;;;;19.08;12.98;;;;;;;;;;4990392;28;20531;-78
2023/06/09 00:15:48;;;;;;;17.00;12.65;;;;;;;;;;4984585;28;20096;-78
2023/06/09 00:18:16;;;;;;;19.55;12.82;;;;;;;;;;4984303;28;20531;-79
2023/06/09 00:20:42;;;;;;;16.48;12.15;;;;;;;;;;4958232;28;20402;-78
2023/06/09 00:23:08;;;;;;;17.73;13.40;;;;;;;;;;4978984;28;20050;-78
2023/06/09 00:25:34;;;;;;;18.60;12.77;;;;;;;;;;4988644;28;20407;-78
2023/06/09 00:27:59;;;;;;;16.63;12.45;;;;;;;;;;4984863;28;20441;-79
2023/06/09 00:30:25;;;;;;;17.85;13.27;;;;;;;;;;4975187;28;20403;-78
2023/06/09 00:32:50;;;;;;;20.77;13.68;;;;;;;;;;4945722;28;20503;-78
2023/06/09 00:35:16;;;;;;;16.45;12.90;;;;;;;;;;4973354;28;20019;-77
2023/06/09 00:37:42;;;;;;;19.08;13.60;;;;;;;;;;4949029;28;20044;-76
2023/06/09 00:40:08;;;;;;;22.65;14.18;;;;;;;;;;4985985;28;20515;-79
2023/06/09 00:42:34;;;;;;;20.63;12.23;;;;;;;;;;4981443;28;20034;-79
2023/06/09 00:45:00;;;;;;;18.20;13.75;;;;;;;;;;4985143;28;20027;-78
2023/06/09 00:47:26;;;;;;;18.02;13.73;;;;;;;;;;4979685;28;20062;-78
2023/06/09 00:49:52;;;;;;;18.67;13.18;;;;;;;;;;4993059;28;20022;-79
2023/06/09 00:52:18;;;;;;;18.83;13.13;;;;;;;;;;4966768;28;20484;-78
2023/06/09 00:54:43;;;;;;;17.48;12.73;;;;;;;;;;4972525;28;20072;-76
2023/06/09 00:57:10;;;;;;;16.13;13.27;;;;;;;;;;4959987;28;20058;-77
2023/06/09 00:59:36;;;;;;;17.95;12.30;;;;;;;;;;4985701;28;20030;-78
2023/06/09 01:02:03;;;;;;;19.25;13.40;;;;;;;;;;4983345;28;20446;-77
2023/06/09 01:04:29;;;;;;;18.02;13.13;;;;;;;;;;4962689;28;20110;-78
2023/06/09 01:07:00;;;;;;;14.07;11.55;;;;;;;;;;4956729;28;20085;-78
2023/06/09 01:09:38;;;;;;;14.90;12.25;;;;;;;;;;4957406;28;20026;-78
2023/06/09 01:12:13;;;;;;;13.70;11.00;;;;;;;;;;4966780;28;20035;-76
2023/06/09 01:14:48;;;;;;;14.45;12.10;;;;;;;;;;4961903;28;20035;-78
2023/06/09 01:17:18;;;;;;;15.13;11.50;;;;;;;;;;4944861;28;20065;-79
2023/06/09 01:19:45;;;;;;;14.02;11.50;;;;;;;;;;4969010;28;20085;-78
2023/06/09 01:22:17;;;;;;;17.13;12.02;;;;;;;;;;4951637;28;20027;-79
2023/06/09 01:24:59;;;;;;;18.98;12.23;;;;;;;;;;4961111;28;20027;-79
2023/06/09 01:27:25;;;;;;;15.13;11.50;;;;;;;;;;4946518;28;20074;-79
2023/06/09 01:29:52;;;;;;;13.98;11.15;;;;;;;;;;4991727;28;20029;-79
2023/06/09 01:32:18;;;;;;;16.83;11.30;;;;;;;;;;4992962;28;20022;-78
2023/06/09 01:34:44;;;;;;;14.65;11.65;;;;;;;;;;4941179;29;20505;-79
2023/06/09 01:37:11;;;;;;;14.02;11.77;;;;;;;;;;4989632;28;20026;-77
2023/06/09 01:39:37;;;;;;;13.93;10.95;;;;;;;;;;4963220;28;20030;-79
2023/06/09 01:42:03;;;;;;;13.55;10.93;;;;;;;;;;4965602;28;20161;-78
2023/06/09 01:44:29;;;;;;;13.07;10.05;;;;;;;;;;4969976;28;20085;-77
2023/06/09 01:46:54;;;;;;;16.27;11.02;;;;;;;;;;4960506;28;20061;-77
2023/06/09 01:49:29;;;;;;;14.10;11.07;;;;;;;;;;4972096;28;20042;-79
2023/06/09 01:52:02;;;;;;;16.58;11.23;;;;;;;;;;4965754;28;20069;-78
2023/06/09 01:54:40;;;;;;;16.08;12.15;;;;;;;;;;4963768;28;20062;-78
2023/06/09 01:57:17;;;;;;;13.02;10.45;;;;;;;;;;4990632;28;20061;-79
2023/06/09 01:59:53;;;;;;;12.23;10.50;;;;;;;;;;4964603;28;20105;-80
2023/06/09 02:02:20;;;;;;;14.57;11.25;;;;;;;;;;4981491;28;20315;-78
2023/06/09 02:04:47;;;;;;;15.57;10.80;;;;;;;;;;4993702;28;20046;-78
2023/06/09 02:07:16;;;;;;;15.13;11.77;;;;;;;;;;4974357;28;20030;-79
2023/06/09 02:09:45;;;;;;;14.02;11.32;;;;;;;;;;4954728;28;20035;-78
2023/06/09 02:12:11;;;;;;;19.42;12.50;;;;;;;;;;4999470;28;20522;-79
2023/06/09 02:14:37;;;;;;;18.38;11.07;;;;;;;;;;4976661;28;20027;-79
2023/06/09 02:17:03;;;;;;;12.80;10.82;;;;;;;;;;4992051;28;20026;-79
2023/06/09 02:19:30;;;;;;;16.65;11.15;;;;;;;;;;4956715;28;20042;-76
2023/06/09 02:21:57;;;;;;;15.75;10.90;;;;;;;;;;4977788;28;20035;-78
2023/06/09 02:24:27;;;;;;;18.15;11.52;;;;;;;;;;4987091;28;20034;-77
2023/06/09 02:26:54;;;;;;;15.13;11.23;;;;;;;;;;4976667;28;20034;-78
2023/06/09 02:29:19;;;;;;;15.55;11.75;;;;;;;;;;4957055;28;20046;-78
2023/06/09 02:31:44;;;;;;;16.85;11.18;;;;;;;;;;4952116;28;20039;-79
2023/06/09 02:34:10;;;;;;;17.00;11.38;;;;;;;;;;4958095;28;20027;-78
2023/06/09 02:36:37;;;;;;;19.85;11.75;;;;;;;;;;4977501;28;20109;-79
2023/06/09 02:39:05;;;;;;;22.70;12.77;;;;;;;;;;4987329;28;20038;-79
2023/06/09 02:41:31;;;;;;;20.83;13.73;;;;;;;;;;4961125;28;20041;-79
2023/06/09 02:43:56;;;;;;;18.85;12.55;;;;;;;;;;4953148;28;20027;-79
2023/06/09 02:46:22;;;;;;;16.52;12.13;;;;;;;;;;4955650;28;20040;-77
2023/06/09 02:48:48;;;;;;;17.25;12.30;;;;;;;;;;4962403;28;20059;-78
2023/06/09 02:51:14;;;;;;;18.48;12.88;;;;;;;;;;4963480;28;20041;-78
2023/06/09 02:53:40;;;;;;;16.20;12.55;;;;;;;;;;4963199;28;20031;-79
2023/06/09 02:56:06;;;;;;;19.60;12.90;;;;;;;;;;4958102;28;20039;-78
2023/06/09 02:58:39;;;;;;;17.67;12.50;;;;;;;;;;4957599;28;20558;-78
2023/06/09 03:01:07;;;;;;;19.00;13.35;;;;;;;;;;4941379;28;20034;-78
2023/06/09 03:03:34;;;;;;;16.63;13.57;;;;;;;;;;4957926;28;20041;-79
2023/06/09 03:06:00;;;;;;;20.98;14.93;;;;;;;;;;4957446;28;20571;-79
2023/06/09 03:08:27;;;;;;;19.58;13.68;;;;;;;;;;4943281;28;20081;-78
2023/06/09 03:10:53;;;;;;;20.45;15.15;;;;;;;;;;4959949;28;20027;-78
2023/06/09 03:13:19;;;;;;;21.17;13.57;;;;;;;;;;4961309;28;20580;-77
2023/06/09 03:15:50;;;;;;;21.92;13.70;;;;;;;;;;4946484;28;20338;-79
2023/06/09 03:18:16;;;;;;;22.52;14.00;;;;;;;;;;4945900;28;20041;-78
2023/06/09 03:20:42;;;;;;;19.38;13.93;;;;;;;;;;4961776;28;20444;-77
2023/06/09 03:23:10;;;;;;;20.58;14.20;;;;;;;;;;4960365;28;20110;-78
2023/06/09 03:25:39;;;;;;;19.35;14.43;;;;;;;;;;4960975;28;20053;-79
2023/06/09 03:28:05;;;;;;;18.00;13.82;;;;;;;;;;4964543;28;20253;-80
2023/06/09 03:30:33;;;;;;;19.23;15.00;;;;;;;;;;4968993;28;20049;-77
2023/06/09 03:32:59;;;;;;;18.70;13.55;;;;;;;;;;4942409;28;20039;-79
2023/06/09 03:35:24;;;;;;;23.77;15.02;;;;;;;;;;4957171;28;20031;-78
2023/06/09 03:37:50;;;;;;;17.10;12.77;;;;;;;;;;4962706;28;20369;-77
2023/06/09 03:40:16;;;;;;;18.63;14.27;;;;;;;;;;4964280;28;20057;-78
2023/06/09 03:42:42;;;;;;;19.75;14.43;;;;;;;;;;4959318;28;20039;-78
2023/06/09 03:45:08;;;;;;;18.63;14.75;;;;;;;;;;4942690;28;20045;-78
2023/06/09 03:47:34;;;;;;;25.05;14.57;;;;;;;;;;4975476;28;20050;-78
2023/06/09 03:50:03;;;;;;;22.20;14.82;;;;;;;;;;4958454;28;20037;-78
2023/06/09 03:52:31;;;;;;;24.15;15.88;;;;;;;;;;4941649;28;20369;-78
2023/06/09 03:54:58;;;;;;;23.70;16.23;;;;;;;;;;4942847;28;20050;-79
2023/06/09 03:57:24;;;;;;;19.17;15.43;;;;;;;;;;4958325;28;20085;-78
2023/06/09 03:59:50;;;;;;;22.02;15.85;;;;;;;;;;4926640;28;20058;-77
2023/06/09 04:02:17;;;;;;;22.75;15.63;;;;;;;;;;4958048;28;20122;-78
2023/06/09 04:04:43;;;;;;;20.67;15.75;;;;;;;;;;4926940;28;20416;-78
2023/06/09 04:07:11;;;;;;;20.95;15.85;;;;;;;;;;4926310;28;20046;-78
2023/06/09 04:09:36;;;;;;;18.92;14.80;;;;;;;;;;4958158;28;20045;-77
2023/06/09 04:12:02;;;;;;;24.10;15.57;;;;;;;;;;4974917;28;20034;-78
2023/06/09 04:14:30;;;;;;;22.58;15.65;;;;;;;;;;4957994;28;20105;-78
2023/06/09 04:16:56;;;;;;;20.13;15.73;;;;;;;;;;4941803;28;20520;-78
2023/06/09 04:19:22;;;;;;;23.40;14.15;;;;;;;;;;4941464;28;20061;-78
2023/06/09 04:21:49;;;;;;;25.70;14.95;;;;;;;;;;4941410;28;20039;-79
2023/06/09 04:24:14;;;;;;;19.73;14.98;;;;;;;;;;4957415;28;20027;-79
2023/06/09 04:26:43;;;;;;;23.15;15.75;;;;;;;;;;4941554;28;20127;-78
2023/06/09 04:29:10;;;;;;;27.17;15.90;;;;;;;;;;4957327;28;20065;-79
2023/06/09 04:31:42;;;;;;;20.52;15.30;;;;;;;;;;4957059;28;20037;-79
2023/06/09 04:34:12;;;;;;;21.80;15.10;;;;;;;;;;4957087;28;20435;-79
2023/06/09 04:36:44;;;;;;;24.45;15.60;;;;;;;;;;4941402;28;20027;-78
2023/06/09 04:39:12;;;;;;;20.95;14.95;;;;;;;;;;4957461;28;20114;-79
2023/06/09 04:41:38;;;;;;;20.35;16.15;;;;;;;;;;4972529;28;20247;-78
2023/06/09 04:44:05;;;;;;;22.27;16.50;;;;;;;;;;4956825;28;20117;-78
2023/06/09 04:46:41;;;;;;;;;;;;;;;;;;4957358;28;20035;-79
2023/06/09 04:49:10;;;;;;;21.00;15.18;;;;;;;;;;4940941;28;20374;-78
2023/06/09 04:51:46;;;;;;;22.83;14.85;;;;;;;;;;4956654;28;20070;-78
2023/06/09 04:54:13;;;;;;;19.70;14.63;;;;;;;;;;4974165;28;20085;-79
2023/06/09 04:56:40;;;;;;;21.95;16.10;;;;;;;;;;4940966;28;20110;-77
2023/06/09 04:59:06;;;;;;;22.95;16.30;;;;;;;;;;4940926;28;20038;-79
2023/06/09 05:01:33;;;;;;;24.92;14.82;;;;;;;;;;4956613;28;20035;-78
2023/06/09 05:04:00;;;;;;;23.20;15.40;;;;;;;;;;4957802;28;20113;-79
2023/06/09 05:06:26;;;;;;;21.90;15.15;;;;;;;;;;4940393;28;20033;-79
2023/06/09 05:08:52;;;;;;;18.77;14.38;;;;;;;;;;4940781;28;20031;-78
2023/06/09 05:11:18;;;;;;;19.48;13.98;;;;;;;;;;4955899;28;20487;-79
2023/06/09 05:13:44;;;;;;;32.90;14.52;;;;;;;;;;4940374;28;20034;-78
2023/06/09 05:16:11;;;;;;;22.95;14.95;;;;;;;;;;4924542;28;20030;-79
2023/06/09 05:18:36;;;;;;;18.17;13.88;;;;;;;;;;4940421;28;20049;-78
2023/06/09 05:21:02;;;;;;;27.25;14.68;;;;;;;;;;4955701;28;20492;-79
2023/06/09 05:23:28;;;;;;;21.05;13.23;;;;;;;;;;4956273;28;20350;-79
2023/06/09 05:25:54;;;;;;;17.27;12.95;;;;;;;;;;4956293;28;20480;-77
2023/06/09 05:28:20;;;;;;;16.08;13.10;;;;;;;;;;4956003;28;20403;-79
2023/06/09 05:30:45;;;;;;;15.15;12.48;;;;;;;;;;4940091;28;20062;-79
2023/06/09 05:33:11;;;;;;;15.52;12.43;;;;;;;;;;4940398;28;20467;-79
2023/06/09 05:35:37;;;;;;;19.30;13.00;;;;;;;;;;4956391;28;20031;-78
2023/06/09 05:38:03;;;;;;;18.73;13.07;;;;;;;;;;4940429;28;20484;-78
2023/06/09 05:40:29;;;;;;;16.48;11.50;;;;;;;;;;4972531;22;20035;-83
2023/06/09 05:42:54;;;;;;;19.02;11.32;;;;;;;;;;4940435;28;20042;-82
2023/06/09 05:45:20;;;;;;;18.15;11.27;;;;;;;;;;4976812;28;20026;-83
2023/06/09 05:47:45;;;;;;;16.65;10.98;;;;;;;;;;4940994;28;20073;-81
2023/06/09 05:50:11;;;;;;;16.35;11.23;;;;;;;;;;4940177;28;20042;-82
2023/06/09 05:52:37;;;;;;;15.10;10.15;;;;;;;;;;4956035;28;20042;-82
2023/06/09 05:55:02;;;;;;;13.40;9.13;;;;;;;;;;4974286;28;20472;-83
2023/06/09 05:57:29;;;;;;;13.07;8.85;;;;;;;;;;4956350;28;20451;-82
2023/06/09 05:59:56;;;;;;;10.93;7.97;;;;;;;;;;4957305;28;20030;-83
2023/06/09 06:02:23;;;;;;;13.75;8.73;;;;;;;;;;4974541;28;20027;-81
2023/06/09 06:04:48;;;;;;;11.93;8.93;;;;;;;;;;4974423;28;20026;-82
2023/06/09 06:07:15;;;;;;;14.00;9.23;;;;;;;;;;4958087;28;20023;-82
2023/06/09 06:09:40;;;;;;;15.48;8.68;;;;;;;;;;4974481;28;20082;-82
2023/06/09 06:12:06;;;;;;;12.23;8.55;;;;;;;;;;4978115;28;20422;-82
2023/06/09 06:14:32;;;;;;;10.25;7.13;;;;;;;;;;4982615;28;20034;-81
2023/06/09 06:16:57;;;;;;;9.73;7.07;;;;;;;;;;4966525;28;20055;-81
2023/06/09 06:19:23;;;;;;;10.55;7.50;;;;;;;;;;4968413;28;20503;-81
2023/06/09 06:21:49;;;;;;;11.35;6.47;;;;;;;;;;4968422;28;20041;-81
2023/06/09 06:24:15;;;;;;;10.80;6.82;;;;;;;;;;4971158;28;20031;-82
2023/06/09 06:26:41;;;;;;;9.73;6.20;;;;;;;;;;4957175;28;20042;-81
2023/06/09 06:29:07;;;;;;;13.20;6.47;;;;;;;;;;4977773;28;20050;-82
2023/06/09 06:31:32;;;;;;;9.27;6.18;;;;;;;;;;4955701;28;20046;-82
2023/06/09 06:33:58;;;;;;;13.57;5.93;;;;;;;;;;4960296;28;20405;-83
2023/06/09 06:36:24;;;;;;;11.82;6.03;;;;;;;;;;4995782;28;20023;-81
2023/06/09 06:38:50;;;;;;;11.48;6.00;;;;;;;;;;4959805;28;20028;-83
2023/06/09 06:41:15;;;;;;;11.05;6.03;;;;;;;;;;4960424;28;20067;-80
2023/06/09 06:43:41;;;;;;;11.30;6.78;;;;;;;;;;4992331;28;20034;-82
2023/06/09 06:46:11;;;;;;;11.60;6.32;;;;;;;;;;4975878;28;20031;-83
2023/06/09 06:48:38;;;;;;;11.02;5.82;;;;;;;;;;4960241;28;20031;-82
2023/06/09 06:51:05;;;;;;;8.65;5.57;;;;;;;;;;4943645;28;20088;-83
2023/06/09 06:53:31;;;;;;;10.82;6.63;;;;;;;;;;4959746;28;20109;-81
2023/06/09 06:55:57;;;;;;;11.05;5.68;;;;;;;;;;4943569;28;20438;-83
2023/06/09 06:58:22;;;;;;;10.65;6.15;;;;;;;;;;4959465;28;20058;-82
2023/06/09 07:00:48;;;;;;;9.40;6.50;;;;;;;;;;4959318;28;20503;-82
2023/06/09 07:03:16;;;;;;;10.35;7.05;;;;;;;;;;4977192;28;20097;-81
2023/06/09 07:05:41;;;;;;;11.80;6.28;;;;;;;;;;4959541;28;20026;-80
2023/06/09 07:08:07;;;;;;;14.07;6.60;;;;;;;;;;4976806;28;20097;-81
2023/06/09 07:10:34;;;;;;;7.10;5.07;;;;;;;;;;4959062;28;21370;-82
2023/06/09 07:12:59;;;;;;;8.60;5.25;;;;;;;;;;4959329;28;20146;-82
2023/06/09 07:15:25;;;;;;;10.30;5.50;;;;;;;;;;4976476;28;20054;-83
2023/06/09 07:17:50;;;;;;;10.07;5.60;;;;;;;;;;4959319;28;20483;-83
2023/06/09 07:20:16;;;;;;;8.77;5.43;;;;;;;;;;4975991;28;20476;-83
2023/06/09 07:22:41;;;;;;;9.18;5.32;;;;;;;;;;4943225;28;20502;-83
2023/06/09 07:25:08;;;;;;;8.82;6.68;;;;;;;;;;4942559;28;20027;-83
2023/06/09 07:27:33;;;;;;;8.60;5.82;;;;;;;;;;4958181;28;20480;-82
2023/06/09 07:29:59;;;;;;;9.07;5.20;;;;;;;;;;4976229;28;20076;-83
2023/06/09 07:32:25;;;;;;;6.03;4.50;;;;;;;;;;4958170;28;20054;-82
2023/06/09 07:34:50;;;;;;;11.30;5.50;;;;;;;;;;4958959;28;20555;-82
2023/06/09 07:37:16;;;;;;;7.95;4.70;;;;;;;;;;4975652;28;20023;-83
2023/06/09 07:39:42;;;;;;;9.30;5.20;;;;;;;;;;4958507;28;20031;-81
2023/06/09 07:42:07;;;;;;;7.20;4.88;;;;;;;;;;4975551;28;20069;-81
2023/06/09 07:44:34;;;;;;;8.70;5.43;;;;;;;;;;4975945;28;20027;-82
2023/06/09 07:46:59;;;;;;;8.35;4.90;;;;;;;;;;4958402;28;20122;-82
2023/06/09 07:49:26;;;;;;;11.25;5.25;;;;;;;;;;4958892;28;20054;-81
2023/06/09 07:51:52;;;;;;;9.77;5.25;;;;;;;;;;4958025;28;20046;-82
2023/06/09 07:54:18;;;;;;;8.80;4.97;;;;;;;;;;4974218;28;20035;-82
2023/06/09 07:56:48;;;;;;;8.48;5.45;;;;;;;;;;4972504;28;20037;-82
2023/06/09 07:59:14;;;;;;;8.57;5.10;;;;;;;;;;4964543;28;20018;-82
2023/06/09 08:01:40;;;;;;;7.60;4.72;;;;;;;;;;4956611;28;20061;-83
2023/06/09 08:04:05;;;;;;;13.38;5.35;;;;;;;;;;4977956;28;20034;-83
2023/06/09 08:06:33;;;;;;;7.43;4.75;;;;;;;;;;4956357;28;20481;-81
2023/06/09 08:08:59;;;;;;;197.27;131.73;;;;;;;;;;4964586;28;20045;-86
2023/06/09 08:11:26;;;;;;;28.48;19.10;;;;;;;;;;4980509;28;20054;-85
2023/06/09 08:13:51;;;;;;;10.27;7.07;;;;;;;;;;4974335;28;20022;-84
2023/06/09 08:16:17;;;;;;;9.32;5.53;;;;;;;;;;4946485;29;20046;-85
2023/06/09 08:18:43;;;;;;;7.00;4.72;;;;;;;;;;4951378;29;20042;-84
2023/06/09 08:21:08;;;;;;;11.35;5.38;;;;;;;;;;4967026;28;20068;-82
2023/06/09 08:23:34;;;;;;;10.75;5.13;;;;;;;;;;4959192;28;20030;-83
2023/06/09 08:26:00;;;;;;;8.43;5.18;;;;;;;;;;4947768;29;20042;-81
2023/06/09 08:28:25;;;;;;;8.48;5.50;;;;;;;;;;4937681;29;20042;-84
2023/06/09 08:30:51;;;;;;;10.13;5.07;;;;;;;;;;4976126;28;20045;-83
2023/06/09 08:33:16;;;;;;;7.63;5.35;;;;;;;;;;4950365;28;20026;-83
2023/06/09 08:35:42;;;;;;;8.20;5.05;;;;;;;;;;4979900;28;20503;-84
2023/06/09 08:38:08;;;;;;;8.13;4.95;;;;;;;;;;4977744;28;20053;-83
2023/06/09 08:40:35;;;;;;;8.60;5.25;;;;;;;;;;4975147;28;20042;-83
2023/06/09 08:43:02;;;;;;;7.57;4.80;;;;;;;;;;4965225;28;20096;-84
2023/06/09 08:45:30;;;;;;;9.20;4.80;;;;;;;;;;4933176;28;20034;-85
2023/06/09 08:47:57;;;;;;;9.02;4.97;;;;;;;;;;4971700;28;20089;-85
2023/06/09 08:50:25;;;;;;;8.23;5.20;;;;;;;;;;4985660;28;20076;-84
2023/06/09 08:52:53;;;;;;;7.05;4.65;;;;;;;;;;4946215;28;20030;-84
2023/06/09 08:55:19;;;;;;;9.95;5.35;;;;;;;;;;4944492;28;20045;-84
2023/06/09 08:57:46;;;;;;;14.90;5.88;;;;;;;;;;4954451;28;20039;-84
2023/06/09 09:00:12;;;;;;;7.97;5.10;;;;;;;;;;4953119;28;20049;-84
2023/06/09 09:02:38;;;;;;;11.73;4.97;;;;;;;;;;4949783;28;20152;-82
2023/06/09 09:05:04;;;;;;;7.75;4.90;;;;;;;;;;4944391;28;20031;-83
2023/06/09 09:07:30;;;;;;;10.80;5.32;;;;;;;;;;4951266;28;20461;-82
2023/06/09 09:09:58;;;;;;;9.05;5.25;;;;;;;;;;4981434;28;20080;-84
2023/06/09 09:12:24;;;;;;;10.40;5.90;;;;;;;;;;4941510;29;20035;-83
2023/06/09 09:14:50;;;;;;;8.45;5.10;;;;;;;;;;4909522;29;20058;-84
2023/06/09 09:17:15;;;;;;;8.40;5.50;;;;;;;;;;4941939;28;20057;-83
2023/06/09 09:19:45;;;;;;;6.88;4.88;;;;;;;;;;4930810;28;20045;-84
2023/06/09 09:22:11;;;;;;;10.45;5.60;;;;;;;;;;4965880;28;20037;-82
2023/06/09 09:24:39;;;;;;;10.40;5.70;;;;;;;;;;4941457;28;20035;-83
2023/06/09 09:27:05;;;;;;;;;;;;;;;;;;4957668;28;20042;-84
2023/06/09 09:29:38;;;;;;;6.43;4.47;;;;;;;;;;4940770;28;19910;-84
2023/06/09 09:32:05;;;;;;;12.73;5.55;;;;;;;;;;4920324;29;20034;-83
2023/06/09 09:34:31;;;;;;;8.95;5.07;;;;;;;;;;4923682;29;20031;-84
2023/06/09 09:36:57;;;;;;;9.57;5.05;;;;;;;;;;4955847;28;20110;-83
2023/06/09 09:39:23;;;;;;;7.60;4.95;;;;;;;;;;4944339;28;20026;-83
2023/06/09 09:42:08;;;;;;;7.32;4.47;;;;;;;;;;4968827;28;20058;-84
2023/06/09 09:44:41;;;;;;;7.18;4.72;;;;;;;;;;4953349;28;20053;-85
2023/06/09 09:47:08;;;;;;;7.35;4.97;;;;;;;;;;4944067;28;20034;-85
2023/06/09 09:49:34;;;;;;;9.05;4.85;;;;;;;;;;4970704;28;20054;-83
2023/06/09 09:52:00;;;;;;;9.07;4.90;;;;;;;;;;4980818;28;20105;-85
2023/06/09 09:54:26;;;;;;;10.35;5.28;;;;;;;;;;4965734;28;20073;-84
2023/06/09 09:56:53;;;;;;;373.55;266.55;;;;;;;;;;4943659;28;20049;-84
2023/06/09 09:59:31;;;;;;;115.22;77.25;;;;;;;;;;4955544;28;20034;-83
2023/06/09 10:01:57;;;;;;;47.05;31.20;;;;;;;;;;4929603;28;20041;-82
2023/06/09 10:04:24;;;;;;;37.88;24.75;;;;;;;;;;4967370;28;20038;-84
2023/06/09 10:06:53;;;;;;;36.13;24.67;;;;;;;;;;4952191;29;20528;-83
2023/06/09 10:09:23;;;;;;;26.58;17.05;;;;;;;;;;4956288;28;20039;-83
2023/06/09 10:11:50;;;;;;;25.80;14.88;;;;;;;;;;4932407;28;20065;-84
2023/06/09 10:14:16;;;;;;;23.88;14.45;;;;;;;;;;4936573;28;20035;-82
2023/06/09 10:16:42;;;;;;;21.85;13.38;;;;;;;;;;4959943;28;20034;-82
2023/06/09 10:19:08;;;;;;;14.18;8.73;;;;;;;;;;4991352;28;20041;-81
2023/06/09 10:21:35;;;;;;;8.90;6.00;;;;;;;;;;4971974;28;20097;-82
2023/06/09 10:24:01;;;;;;;17.13;7.78;;;;;;;;;;4963122;28;20046;-82
2023/06/09 10:26:27;;;;;;;14.15;7.38;;;;;;;;;;4980054;28;20058;-82
2023/06/09 10:28:53;;;;;;;11.02;7.13;;;;;;;;;;5000973;28;20038;-83
2023/06/09 10:31:23;;;;;;;11.45;5.90;;;;;;;;;;4954874;28;20160;-83
2023/06/09 10:33:49;;;;;;;9.73;5.30;;;;;;;;;;4945249;28;20038;-83
2023/06/09 10:36:15;;;;;;;12.90;5.45;;;;;;;;;;4940645;28;20039;-83
2023/06/09 10:38:47;;;;;;;10.77;5.25;;;;;;;;;;4946670;29;20078;-83
2023/06/09 10:41:28;;;;;;;10.50;4.32;;;;;;;;;;4966761;28;20038;-85
2023/06/09 10:44:02;;;;;;;8.82;4.57;;;;;;;;;;4960058;28;20034;-83
2023/06/09 10:46:42;;;;;;;13.95;5.53;;;;;;;;;;4962047;28;20039;-82
2023/06/09 10:49:37;;;;;;;9.73;4.72;;;;;;;;;;4951780;28;20070;-82
2023/06/09 10:52:04;;;;;;;8.20;4.40;;;;;;;;;;4988593;28;20040;-82
2023/06/09 10:54:38;;;;;;;7.93;5.07;;;;;;;;;;4973946;28;20031;-83
2023/06/09 10:57:05;;;;;;;8.95;4.35;;;;;;;;;;4966095;28;20094;-83
2023/06/09 10:59:30;;;;;;;8.25;4.30;;;;;;;;;;4967014;28;20030;-82
2023/06/09 11:01:59;;;;;;;7.78;4.80;;;;;;;;;;4950764;28;20408;-84
2023/06/09 11:04:37;;;;;;;20.83;4.55;;;;;;;;;;4926945;29;20050;-82
2023/06/09 11:07:13;;;;;;;10.00;4.40;;;;;;;;;;4946384;28;20045;-86
2023/06/09 11:09:39;;;;;;;10.00;4.32;;;;;;;;;;4949097;28;20069;-80
2023/06/09 11:12:05;;;;;;;6.00;4.30;;;;;;;;;;4987028;28;20038;-79
2023/06/09 11:14:46;;;;;;;6.82;4.30;;;;;;;;;;4982210;28;20082;-80
2023/06/09 11:17:15;;;;;;;7.03;3.88;;;;;;;;;;4974070;28;20035;-81
2023/06/09 11:19:41;;;;;;;9.77;3.97;;;;;;;;;;4952063;28;20077;-81
2023/06/09 11:22:08;;;;;;;6.00;3.78;;;;;;;;;;4962008;28;20054;-83
2023/06/09 11:24:46;;;;;;;9.27;4.22;;;;;;;;;;4975063;28;20456;-83
2023/06/09 11:27:32;;;;;;;7.05;4.05;;;;;;;;;;4948538;28;20089;-82
2023/06/09 11:30:05;;;;;;;8.15;4.07;;;;;;;;;;4968701;28;20491;-84
2023/06/09 11:32:44;;;;;;;5.90;3.58;;;;;;;;;;4986541;28;20542;-85
2023/06/09 11:35:11;;;;;;;6.97;3.65;;;;;;;;;;4961516;28;20070;-84
2023/06/09 11:37:36;;;;;;;6.63;4.63;;;;;;;;;;4941337;28;20089;-83
2023/06/09 11:40:05;;;;;;;9.40;3.53;;;;;;;;;;4951799;28;20439;-84
2023/06/09 11:42:33;;;;;;;9.25;4.90;;;;;;;;;;4943482;28;20042;-82
2023/06/09 11:45:00;;;;;;;8.00;3.80;;;;;;;;;;4940402;28;20213;-84
2023/06/09 11:47:26;;;;;;;8.57;3.72;;;;;;;;;;4976172;28;20113;-84
2023/06/09 11:49:59;;;;;;;6.20;3.65;;;;;;;;;;4968536;28;20122;-83
2023/06/09 11:52:24;;;;;;;6.70;4.30;;;;;;;;;;4953859;28;20031;-83
2023/06/09 11:54:50;;;;;;;7.90;3.80;;;;;;;;;;4973765;28;20026;-84
2023/06/09 11:57:16;;;;;;;6.05;4.13;;;;;;;;;;4970811;28;20041;-84
2023/06/09 11:59:42;;;;;;;9.35;4.00;;;;;;;;;;4937814;28;20023;-84
2023/06/09 12:02:08;;;;;;;10.38;3.85;;;;;;;;;;4962793;28;20043;-84
2023/06/09 12:04:38;;;;;;;9.68;4.18;;;;;;;;;;4956274;28;20030;-83
2023/06/09 12:07:03;;;;;;;7.80;3.55;;;;;;;;;;4981116;28;20030;-84
2023/06/09 12:09:29;;;;;;;9.50;4.05;;;;;;;;;;4984719;28;20535;-84
2023/06/09 12:11:54;;;;;;;6.30;3.70;;;;;;;;;;4970118;28;20039;-85
2023/06/09 12:14:23;;;;;;;7.18;3.63;;;;;;;;;;4941383;28;20400;-84
2023/06/09 12:16:49;;;;;;;5.28;3.78;;;;;;;;;;4972240;28;20038;-84
2023/06/09 12:19:16;;;;;;;7.55;4.00;;;;;;;;;;4949256;28;20447;-84
2023/06/09 12:21:45;;;;;;;11.20;4.70;;;;;;;;;;4948852;28;20488;-83
2023/06/09 12:24:11;;;;;;;7.70;4.22;;;;;;;;;;4960142;28;20038;-86
2023/06/09 12:26:37;;;;;;;11.45;4.32;;;;;;;;;;4945297;28;20088;-88
2023/06/09 12:29:03;;;;;;;8.75;4.45;;;;;;;;;;4955546;28;20110;-88
2023/06/09 12:31:29;;;;;;;8.13;4.32;;;;;;;;;;4967913;28;20026;-86
2023/06/09 12:33:56;;;;;;;7.55;3.95;;;;;;;;;;4964839;28;20452;-87
2023/06/09 12:36:22;;;;;;;5.43;3.95;;;;;;;;;;4942907;28;20031;-87
2023/06/09 12:38:50;;;;;;;6.75;4.25;;;;;;;;;;4947447;28;20046;-85
2023/06/09 12:41:16;;;;;;;9.57;4.82;;;;;;;;;;4957370;28;20043;-87
2023/06/09 12:43:45;;;;;;;10.32;4.78;;;;;;;;;;4939422;28;20042;-84
2023/06/09 12:46:12;;;;;;;6.80;4.20;;;;;;;;;;4948207;28;20114;-85
2023/06/09 12:48:56;;;;;;;5.97;4.00;;;;;;;;;;4960112;28;20058;-87
2023/06/09 12:51:22;;;;;;;6.28;4.40;;;;;;;;;;4952223;28;20467;-86
2023/06/09 12:53:48;;;;;;;7.13;4.05;;;;;;;;;;4974790;28;20085;-86
2023/06/09 12:56:14;;;;;;;8.30;4.13;;;;;;;;;;4967725;28;20038;-81
2023/06/09 12:58:39;;;;;;;6.88;4.32;;;;;;;;;;4979207;28;20055;-83
2023/06/09 13:01:05;;;;;;;7.63;4.32;;;;;;;;;;4970959;28;20110;-87
2023/06/09 13:03:31;;;;;;;8.07;4.03;;;;;;;;;;4943505;28;20041;-84
2023/06/09 13:05:57;;;;;;;6.63;4.15;;;;;;;;;;4958188;29;20024;-85
2023/06/09 13:08:23;;;;;;;6.32;4.38;;;;;;;;;;4959615;28;20551;-85
2023/06/09 13:10:49;;;;;;;8.15;4.13;;;;;;;;;;4965494;28;20018;-86
2023/06/09 13:13:14;;;;;;;9.20;3.88;;;;;;;;;;4972728;28;20042;-82
2023/06/09 13:15:40;;;;;;;9.05;4.30;;;;;;;;;;4956584;28;20483;-86
2023/06/09 13:18:11;;;;;;;6.22;3.83;;;;;;;;;;4957247;28;20022;-85
2023/06/09 13:20:36;;;;;;;6.20;3.75;;;;;;;;;;4944781;28;20092;-85
2023/06/09 13:23:02;;;;;;;9.40;4.03;;;;;;;;;;4966532;28;20069;-87
2023/06/09 13:25:28;;;;;;;6.47;3.92;;;;;;;;;;4946988;28;20042;-85
2023/06/09 13:27:53;;;;;;;5.57;3.88;;;;;;;;;;4957816;28;20455;-85
2023/06/09 13:30:19;;;;;;;8.55;4.18;;;;;;;;;;4939660;28;20035;-85
2023/06/09 13:32:45;;;;;;;6.07;3.60;;;;;;;;;;4938300;29;20114;-85
2023/06/09 13:35:11;;;;;;;7.05;4.05;;;;;;;;;;4944215;28;20061;-85
2023/06/09 13:37:36;;;;;;;5.85;4.28;;;;;;;;;;4949015;28;20110;-84
2023/06/09 13:40:02;;;;;;;7.10;4.10;;;;;;;;;;4970247;28;20030;-85
2023/06/09 13:42:28;;;;;;;8.18;3.60;;;;;;;;;;4926714;28;20054;-86
2023/06/09 13:44:53;;;;;;;8.73;4.35;;;;;;;;;;4953779;28;20125;-85
2023/06/09 13:47:19;;;;;;;10.55;4.28;;;;;;;;;;4948344;28;20443;-86
2023/06/09 13:49:45;;;;;;;6.30;4.10;;;;;;;;;;4963367;28;20110;-83
2023/06/09 13:52:11;;;;;;;10.27;3.55;;;;;;;;;;4934680;28;20074;-86
2023/06/09 13:54:36;;;;;;;6.30;3.60;;;;;;;;;;4929415;28;20038;-87
2023/06/09 13:57:02;;;;;;;8.18;3.58;;;;;;;;;;4940117;28;20034;-85
2023/06/09 13:59:28;;;;;;;7.55;3.90;;;;;;;;;;4937644;29;20031;-86
2023/06/09 14:01:57;;;;;;;8.90;4.10;;;;;;;;;;4938286;28;20507;-87
2023/06/09 14:04:28;;;;;;;5.35;3.78;;;;;;;;;;4929462;28;20049;-85
2023/06/09 14:06:54;;;;;;;6.95;3.97;;;;;;;;;;4970889;28;20408;-85
2023/06/09 14:09:20;;;;;;;5.57;3.80;;;;;;;;;;4948929;28;20023;-87
2023/06/09 14:11:46;;;;;;;5.38;3.80;;;;;;;;;;4937521;29;20090;-85
2023/06/09 14:14:11;;;;;;;7.63;4.28;;;;;;;;;;4943821;28;20077;-85
2023/06/09 14:16:37;;;;;;;11.23;4.18;;;;;;;;;;4943639;28;20050;-85
2023/06/09 14:19:03;;;;;;;7.40;3.80;;;;;;;;;;4954148;28;20041;-85
2023/06/09 14:21:28;;;;;;;5.95;3.55;;;;;;;;;;4950281;28;20510;-85
2023/06/09 14:23:54;;;;;;;7.82;3.67;;;;;;;;;;4963840;28;20069;-85
2023/06/09 14:26:20;;;;;;;5.47;3.63;;;;;;;;;;4924041;29;20469;-86
2023/06/09 14:28:45;;;;;;;5.97;4.03;;;;;;;;;;4917364;28;20498;-85
2023/06/09 14:31:11;;;;;;;9.32;3.80;;;;;;;;;;4950046;28;20026;-85